createdAt,value
2023-05-10T00:01:15.102Z,33.58
2023-05-10T00:03:44.372Z,33.61
2023-05-10T00:06:13.091Z,32.93
2023-05-10T00:08:41.033Z,32.47
2023-05-10T00:11:09.040Z,32.82
2023-05-10T00:13:37.148Z,33.45
2023-05-10T00:16:05.286Z,33.77
2023-05-10T00:18:33.421Z,33.30
2023-05-10T00:21:02.821Z,33.09
2023-05-10T00:23:30.929Z,32.87
2023-05-10T00:25:58.900Z,32.88
2023-05-10T00:28:26.879Z,33.18
2023-05-10T00:30:54.616Z,34.02
2023-05-10T00:33:22.907Z,33.94
2023-05-10T00:35:51.223Z,34.10
2023-05-10T00:38:20.494Z,33.46
2023-05-10T00:40:48.932Z,33.94
2023-05-10T00:43:25.319Z,33.86
2023-05-10T00:45:53.620Z,34.54
2023-05-10T00:48:21.710Z,34.52
2023-05-10T00:50:50.060Z,34.68
2023-05-10T00:53:18.892Z,34.67
2023-05-10T00:55:48.292Z,35.10
2023-05-10T00:58:17.044Z,34.70
2023-05-10T01:00:45.512Z,34.57
2023-05-10T01:03:14.105Z,35.01
2023-05-10T01:05:43.217Z,34.64
2023-05-10T01:08:11.275Z,35.76
2023-05-10T01:10:39.575Z,35.42
2023-05-10T01:13:09.047Z,36.12
2023-05-10T01:15:37.808Z,35.88
2023-05-10T01:18:05.945Z,36.49
2023-05-10T01:20:40.357Z,36.68
2023-05-10T01:23:32.221Z,36.11
2023-05-10T01:26:36.190Z,36.19
2023-05-10T01:29:32.464Z,36.38
2023-05-10T01:32:18.056Z,36.20
2023-05-10T01:34:55.368Z,36.29
2023-05-10T01:37:29.475Z,36.54
2023-05-10T01:40:02.471Z,37.08
2023-05-10T01:42:38.701Z,36.84
2023-05-10T01:45:16.629Z,36.99
2023-05-10T01:47:49.014Z,38.05
2023-05-10T01:50:20.964Z,37.57
2023-05-10T01:52:54.052Z,37.38
2023-05-10T01:55:25.462Z,36.71
2023-05-10T01:57:59.012Z,37.28
2023-05-10T02:00:28.327Z,38.70
2023-05-10T02:02:58.628Z,37.89
2023-05-10T02:05:28.812Z,38.03
2023-05-10T02:07:58.855Z,37.77
2023-05-10T02:10:27.999Z,37.94
2023-05-10T02:12:57.272Z,37.55
2023-05-10T02:15:26.902Z,38.23
2023-05-10T02:17:59.289Z,37.89
2023-05-10T02:20:28.320Z,39.05
2023-05-10T02:22:58.939Z,38.61
2023-05-10T02:25:28.168Z,38.57
2023-05-10T02:27:58.766Z,39.09
2023-05-10T02:30:28.102Z,38.54
2023-05-10T02:32:58.740Z,38.68
2023-05-10T02:35:28.309Z,39.00
2023-05-10T02:37:56.997Z,39.25
2023-05-10T02:40:28.554Z,39.38
2023-05-10T02:43:00.240Z,39.25
2023-05-10T02:45:32.365Z,39.81
2023-05-10T02:48:02.242Z,40.20
2023-05-10T02:50:34.457Z,40.45
2023-05-10T02:53:04.218Z,39.53
2023-05-10T02:55:39.019Z,39.38
2023-05-10T02:58:06.992Z,39.36
2023-05-10T03:00:35.182Z,39.18
2023-05-10T03:03:04.614Z,39.01
2023-05-10T03:05:32.669Z,39.42
2023-05-10T03:08:05.247Z,40.28
2023-05-10T03:10:34.729Z,38.75
2023-05-10T03:13:15.279Z,39.68
2023-05-10T03:15:53.277Z,41.07
2023-05-10T03:18:25.099Z,40.84
2023-05-10T03:20:59.895Z,41.13
2023-05-10T03:23:32.239Z,41.81
2023-05-10T03:26:01.617Z,40.64
2023-05-10T03:28:30.310Z,41.05
2023-05-10T03:30:58.884Z,42.94
2023-05-10T03:33:28.445Z,42.88
2023-05-10T03:35:56.506Z,42.82
2023-05-10T03:38:24.445Z,42.30
2023-05-10T03:40:52.430Z,42.72
2023-05-10T03:43:20.442Z,42.75
2023-05-10T03:45:48.589Z,43.71
2023-05-10T03:48:16.860Z,43.28
2023-05-10T03:50:46.247Z,42.13
2023-05-10T03:53:15.211Z,43.42
2023-05-10T03:55:43.153Z,42.93
2023-05-10T03:58:13.203Z,44.36
2023-05-10T04:00:44.743Z,44.56
2023-05-10T04:03:13.469Z,44.46
2023-05-10T04:05:41.769Z,42.89
2023-05-10T04:08:11.081Z,44.13
2023-05-10T04:10:39.960Z,44.69
2023-05-10T04:13:08.177Z,45.12
2023-05-10T04:15:36.898Z,45.73
2023-05-10T04:18:06.520Z,45.36
2023-05-10T04:20:35.928Z,45.57
2023-05-10T04:23:04.057Z,44.63
2023-05-10T04:25:36.487Z,45.26
2023-05-10T04:28:04.627Z,46.43
2023-05-10T04:30:32.777Z,46.86
2023-05-10T04:33:00.957Z,48.09
2023-05-10T04:35:30.504Z,48.26
2023-05-10T04:37:58.418Z,47.75
2023-05-10T04:40:26.379Z,49.06
2023-05-10T04:42:55.657Z,50.36
2023-05-10T04:45:23.730Z,50.14
2023-05-10T04:47:51.691Z,50.54
2023-05-10T04:50:20.052Z,51.61
2023-05-10T04:52:48.035Z,50.76
2023-05-10T04:55:15.914Z,49.92
2023-05-10T04:57:43.984Z,49.06
2023-05-10T05:00:15.291Z,47.72
2023-05-10T05:02:45.034Z,48.50
2023-05-10T05:05:13.029Z,53.92
2023-05-10T05:07:41.218Z,52.71
2023-05-10T05:10:10.819Z,49.82
2023-05-10T05:12:39.228Z,47.87
2023-05-10T05:15:09.934Z,49.52
2023-05-10T05:17:39.636Z,54.12
2023-05-10T05:20:09.132Z,52.72
2023-05-10T05:22:38.342Z,51.99
2023-05-10T05:25:07.950Z,50.62
2023-05-10T05:27:36.105Z,52.03
2023-05-10T05:30:05.095Z,52.16
2023-05-10T05:32:33.284Z,54.60
2023-05-10T05:35:02.592Z,55.21
2023-05-10T05:37:30.544Z,52.01
2023-05-10T05:39:58.645Z,53.31
2023-05-10T05:42:27.626Z,51.98
2023-05-10T05:44:55.609Z,52.27
2023-05-10T05:47:23.857Z,53.30
2023-05-10T05:49:51.704Z,53.71
2023-05-10T05:52:22.193Z,53.54
2023-05-10T05:54:50.726Z,53.65
2023-05-10T05:57:18.786Z,53.38
2023-05-10T05:59:47.215Z,52.61
2023-05-10T06:02:17.672Z,54.16
2023-05-10T06:04:46.010Z,52.65
2023-05-10T06:07:14.075Z,53.48
2023-05-10T06:09:43.587Z,53.96
2023-05-10T06:12:12.731Z,53.89
2023-05-10T06:14:41.181Z,52.69
2023-05-10T06:17:09.194Z,54.47
2023-05-10T06:19:38.211Z,57.49
2023-05-10T06:22:06.622Z,57.87
2023-05-10T06:24:34.910Z,57.98
2023-05-10T06:27:05.310Z,59.53
2023-05-10T06:29:33.427Z,63.49
2023-05-10T06:32:01.608Z,66.65
2023-05-10T06:34:29.851Z,66.06
2023-05-10T06:36:58.013Z,66.45
2023-05-10T06:39:26.485Z,66.72
2023-05-10T06:41:55.461Z,68.40
2023-05-10T06:44:24.932Z,65.77
2023-05-10T06:46:54.503Z,67.15
2023-05-10T06:49:22.549Z,66.29
2023-05-10T06:51:50.614Z,66.86
2023-05-10T06:54:18.751Z,62.07
2023-05-10T06:56:47.207Z,60.25
2023-05-10T06:59:16.317Z,59.74
2023-05-10T07:01:46.178Z,60.17
2023-05-10T07:04:14.852Z,65.76
2023-05-10T07:06:43.213Z,61.87
2023-05-10T07:09:11.445Z,62.12
2023-05-10T07:11:39.624Z,61.37
2023-05-10T07:14:08.123Z,62.58
2023-05-10T07:16:37.324Z,59.05
2023-05-10T07:19:07.501Z,57.17
2023-05-10T07:21:36.264Z,58.69
2023-05-10T07:24:04.773Z,63.22
2023-05-10T07:26:32.965Z,60.93
2023-05-10T07:29:01.471Z,63.13
2023-05-10T07:31:29.531Z,49.45
2023-05-10T07:33:57.967Z,45.98
2023-05-10T07:36:27.508Z,47.26
2023-05-10T07:38:55.928Z,48.21
2023-05-10T07:41:24.259Z,49.07
2023-05-10T07:43:52.379Z,51.20
2023-05-10T07:46:20.492Z,53.51
2023-05-10T07:48:48.874Z,56.46
2023-05-10T07:51:16.908Z,55.35
2023-05-10T07:53:46.352Z,55.05
2023-05-10T07:56:26.109Z,56.19
2023-05-10T07:58:54.378Z,55.26
2023-05-10T08:01:22.570Z,54.11
2023-05-10T08:03:52.147Z,54.40
2023-05-10T08:06:21.257Z,52.16
2023-05-10T08:08:51.775Z,55.17
2023-05-10T08:11:20.547Z,55.33
2023-05-10T08:13:50.042Z,57.00
2023-05-10T08:16:18.658Z,59.77
2023-05-10T08:18:48.106Z,61.68
2023-05-10T08:21:16.935Z,58.83
2023-05-10T08:23:45.267Z,58.24
2023-05-10T08:26:14.852Z,58.22
2023-05-10T08:28:42.825Z,58.57
2023-05-10T08:31:11.044Z,57.90
2023-05-10T08:33:39.127Z,58.39
2023-05-10T08:36:07.263Z,72.17
2023-05-10T08:38:35.717Z,100.00
2023-05-10T08:41:04.643Z,72.49
2023-05-10T08:43:34.386Z,79.84
2023-05-10T08:46:04.087Z,74.38
2023-05-10T08:48:32.486Z,73.01
2023-05-10T08:51:03.133Z,74.95
2023-05-10T08:53:35.236Z,76.41
2023-05-10T08:56:04.802Z,77.00
2023-05-10T08:58:34.591Z,81.67
2023-05-10T09:01:03.392Z,76.13
2023-05-10T09:03:31.888Z,76.09
2023-05-10T09:06:00.171Z,76.26
2023-05-10T09:08:28.848Z,77.57
2023-05-10T09:10:57.502Z,78.71
2023-05-10T09:13:27.061Z,77.46
2023-05-10T09:15:57.631Z,76.74
2023-05-10T09:18:28.411Z,74.44
2023-05-10T09:20:56.984Z,73.34
2023-05-10T09:23:29.776Z,71.75
2023-05-10T09:26:05.638Z,69.03
2023-05-10T09:28:37.010Z,69.63
2023-05-10T09:31:06.626Z,71.09
2023-05-10T09:33:46.095Z,70.18
2023-05-10T09:36:14.956Z,67.15
2023-05-10T09:38:50.502Z,68.22
2023-05-10T09:41:19.538Z,66.44
2023-05-10T09:43:47.748Z,63.27
2023-05-10T09:46:17.360Z,60.89
2023-05-10T09:48:47.902Z,62.39
2023-05-10T09:51:22.531Z,62.47
2023-05-10T09:53:51.730Z,60.03
2023-05-10T09:56:35.935Z,59.63
2023-05-10T09:59:08.086Z,59.95
2023-05-10T10:01:38.196Z,58.36
2023-05-10T10:04:08.266Z,58.29
2023-05-10T10:06:39.725Z,59.77
2023-05-10T10:09:08.444Z,59.35
2023-05-10T10:11:37.509Z,57.55
2023-05-10T10:14:06.232Z,54.72
2023-05-10T10:16:35.114Z,56.58
2023-05-10T10:19:04.591Z,54.78
2023-05-10T10:21:32.739Z,53.57
2023-05-10T10:24:00.828Z,54.12
2023-05-10T10:26:29.382Z,53.27
2023-05-10T10:29:08.608Z,55.11
2023-05-10T10:31:41.310Z,55.50
2023-05-10T10:34:15.141Z,53.60
2023-05-10T10:36:45.583Z,53.76
2023-05-10T10:39:14.826Z,52.15
2023-05-10T10:41:52.219Z,50.07
2023-05-10T10:44:37.763Z,50.14
2023-05-10T10:47:09.729Z,48.30
2023-05-10T10:49:46.293Z,48.69
2023-05-10T10:52:35.252Z,49.81
2023-05-10T10:55:06.243Z,49.52
2023-05-10T10:57:35.753Z,51.31
2023-05-10T11:00:28.864Z,49.16
2023-05-10T11:03:00.053Z,46.57
2023-05-10T11:05:47.805Z,48.76
2023-05-10T11:08:18.870Z,46.83
2023-05-10T11:10:56.208Z,44.62
2023-05-10T11:13:32.052Z,44.00
2023-05-10T11:16:01.199Z,44.88
2023-05-10T11:18:30.689Z,44.74
2023-05-10T11:21:03.853Z,44.74
2023-05-10T11:23:33.263Z,44.41
2023-05-10T11:26:02.263Z,44.64
2023-05-10T11:28:30.338Z,42.04
2023-05-10T11:30:59.187Z,40.98
2023-05-10T11:33:27.266Z,41.31
2023-05-10T11:35:55.557Z,39.93
2023-05-10T11:38:25.027Z,41.15
2023-05-10T11:40:55.391Z,40.06
2023-05-10T11:43:31.606Z,39.63
2023-05-10T11:45:59.915Z,40.02
2023-05-10T11:48:27.972Z,39.06
2023-05-10T11:50:58.082Z,38.16
2023-05-10T11:53:28.513Z,39.60
2023-05-10T11:55:56.453Z,39.06
2023-05-10T11:58:25.044Z,39.93
2023-05-10T12:00:53.278Z,38.60
2023-05-10T12:03:21.513Z,39.99
2023-05-10T12:05:49.832Z,37.68
2023-05-10T12:08:22.128Z,36.26
2023-05-10T12:10:51.600Z,37.55
2023-05-10T12:13:21.439Z,37.68
2023-05-10T12:15:49.758Z,36.02
2023-05-10T12:18:25.718Z,37.02
2023-05-10T12:20:54.731Z,38.48
2023-05-10T12:23:23.432Z,41.07
2023-05-10T12:25:54.959Z,38.73
2023-05-10T12:28:22.929Z,40.04
2023-05-10T12:30:51.297Z,39.28
2023-05-10T12:33:19.716Z,39.33
2023-05-10T12:35:49.790Z,39.58
2023-05-10T12:38:30.524Z,40.02
2023-05-10T12:41:01.639Z,40.34
2023-05-10T12:43:30.061Z,39.23
2023-05-10T12:45:58.292Z,38.73
2023-05-10T12:48:27.219Z,37.11
2023-05-10T12:50:55.490Z,39.50
2023-05-10T12:53:23.815Z,41.13
2023-05-10T12:55:51.817Z,40.89
2023-05-10T12:58:35.012Z,40.69
2023-05-10T13:01:04.156Z,38.64
2023-05-10T13:03:32.675Z,39.10
2023-05-10T13:06:01.030Z,37.51
2023-05-10T13:08:34.448Z,40.67
2023-05-10T13:11:03.366Z,39.96
2023-05-10T13:13:32.897Z,40.50
2023-05-10T13:16:03.853Z,41.87
2023-05-10T13:18:31.943Z,38.68
2023-05-10T13:21:00.278Z,37.06
2023-05-10T13:23:31.618Z,38.30
2023-05-10T13:25:59.822Z,37.74
2023-05-10T13:28:27.789Z,36.29
2023-05-10T13:30:57.396Z,37.16
2023-05-10T13:33:25.599Z,37.75
2023-05-10T13:35:55.672Z,36.73
2023-05-10T13:38:24.070Z,36.27
2023-05-10T13:40:53.818Z,36.86
2023-05-10T13:43:22.008Z,37.88
2023-05-10T13:45:50.171Z,37.28
2023-05-10T13:48:19.727Z,37.36
2023-05-10T13:50:48.224Z,38.13
2023-05-10T13:53:16.445Z,38.60
2023-05-10T13:55:44.428Z,40.30
2023-05-10T13:58:13.181Z,41.56
2023-05-10T14:00:41.467Z,41.69
2023-05-10T14:03:12.059Z,44.24
2023-05-10T14:05:42.006Z,44.11
2023-05-10T14:08:11.028Z,41.72
2023-05-10T14:10:39.091Z,39.97
2023-05-10T14:13:07.204Z,43.80
2023-05-10T14:15:35.345Z,41.37
2023-05-10T14:18:03.423Z,42.88
2023-05-10T14:20:33.072Z,43.23
2023-05-10T14:23:02.640Z,44.08
2023-05-10T14:25:30.702Z,44.67
2023-05-10T14:27:59.018Z,45.45
2023-05-10T14:30:27.220Z,45.75
2023-05-10T14:32:56.364Z,47.06
2023-05-10T14:35:24.998Z,47.27
2023-05-10T14:37:53.428Z,47.32
2023-05-10T14:40:22.759Z,47.47
2023-05-10T14:42:51.076Z,47.82
2023-05-10T14:45:19.359Z,46.95
2023-05-10T14:47:47.435Z,48.21
2023-05-10T14:50:28.246Z,49.14
2023-05-10T14:53:03.834Z,48.87
2023-05-10T14:55:33.692Z,47.02
2023-05-10T14:58:01.977Z,45.82
2023-05-10T15:00:31.348Z,46.64
2023-05-10T15:02:59.969Z,44.43
2023-05-10T15:05:28.301Z,45.95
2023-05-10T15:07:56.837Z,47.24
2023-05-10T15:10:24.812Z,47.80
2023-05-10T15:12:54.210Z,47.79
2023-05-10T15:15:22.570Z,49.49
2023-05-10T15:17:50.696Z,47.37
2023-05-10T15:20:18.957Z,47.69
2023-05-10T15:22:46.989Z,47.57
2023-05-10T15:25:16.938Z,45.81
2023-05-10T15:27:45.843Z,46.55
2023-05-10T15:30:16.138Z,46.07
2023-05-10T15:32:44.217Z,45.52
2023-05-10T15:35:12.784Z,47.70
2023-05-10T15:37:41.064Z,46.82
2023-05-10T15:40:09.831Z,46.46
2023-05-10T15:42:38.092Z,46.03
2023-05-10T15:45:07.044Z,46.36
2023-05-10T15:47:36.519Z,46.38
2023-05-10T15:50:04.746Z,46.19
2023-05-10T15:52:32.724Z,45.75
2023-05-10T15:55:00.669Z,46.96
2023-05-10T15:57:28.612Z,49.88
2023-05-10T15:59:58.236Z,50.75
2023-05-10T16:02:26.281Z,51.73
2023-05-10T16:04:55.790Z,55.74
2023-05-10T16:07:23.793Z,58.19
2023-05-10T16:09:51.780Z,61.02
2023-05-10T16:12:20.072Z,63.92
2023-05-10T16:14:48.457Z,64.08
2023-05-10T16:17:16.849Z,69.36
2023-05-10T16:19:45.096Z,72.40
2023-05-10T16:22:14.556Z,72.71
2023-05-10T16:24:42.746Z,73.22
2023-05-10T16:27:12.491Z,74.06
2023-05-10T16:29:40.719Z,71.09
2023-05-10T16:32:08.693Z,70.25
2023-05-10T16:34:36.941Z,71.29
2023-05-10T16:37:06.397Z,73.47
2023-05-10T16:39:35.969Z,71.19
2023-05-10T16:42:04.393Z,76.81
2023-05-10T16:44:33.209Z,77.89
2023-05-10T16:47:01.651Z,63.00
2023-05-10T16:49:30.053Z,67.55
2023-05-10T16:51:58.323Z,70.36
2023-05-10T16:54:26.576Z,69.13
2023-05-10T16:56:56.084Z,65.77
2023-05-10T16:59:25.362Z,64.04
2023-05-10T17:01:53.911Z,64.66
2023-05-10T17:04:22.446Z,65.58
2023-05-10T17:06:50.866Z,64.49
2023-05-10T17:09:20.302Z,66.53
2023-05-10T17:11:48.437Z,64.85
2023-05-10T17:14:17.910Z,67.07
2023-05-10T17:16:46.336Z,66.14
2023-05-10T17:19:14.859Z,62.07
2023-05-10T17:21:43.160Z,65.22
2023-05-10T17:24:11.589Z,67.04
2023-05-10T17:26:40.493Z,67.26
2023-05-10T17:29:09.658Z,68.75
2023-05-10T17:31:40.944Z,67.54
2023-05-10T17:34:09.433Z,66.63
2023-05-10T17:36:38.207Z,67.03
2023-05-10T17:39:06.474Z,66.18
2023-05-10T17:41:39.736Z,64.83
2023-05-10T17:44:08.011Z,65.43
2023-05-10T17:46:36.956Z,63.03
2023-05-10T17:49:07.428Z,63.39
2023-05-10T17:51:35.750Z,65.93
2023-05-10T17:54:05.103Z,64.96
2023-05-10T17:56:34.129Z,65.54
2023-05-10T17:59:03.909Z,66.61
2023-05-10T18:01:32.526Z,66.24
2023-05-10T18:04:01.983Z,66.52
2023-05-10T18:06:37.387Z,65.15
2023-05-10T18:09:09.122Z,63.97
2023-05-10T18:11:39.017Z,67.80
2023-05-10T18:14:07.187Z,66.02
2023-05-10T18:16:35.701Z,65.82
2023-05-10T18:19:04.467Z,64.46
2023-05-10T18:21:34.602Z,67.62
2023-05-10T18:24:03.065Z,67.27
2023-05-10T18:26:31.056Z,64.53
2023-05-10T18:29:01.619Z,64.08
2023-05-10T18:31:30.202Z,65.70
2023-05-10T18:33:58.481Z,66.43
2023-05-10T18:36:27.566Z,65.78
2023-05-10T18:38:57.718Z,64.53
2023-05-10T18:41:26.905Z,68.22
2023-05-10T18:43:55.238Z,71.28
2023-05-10T18:46:24.207Z,73.67
2023-05-10T18:48:52.647Z,71.74
2023-05-10T18:51:22.113Z,72.23
2023-05-10T18:53:50.477Z,74.70
2023-05-10T18:56:20.272Z,72.04
2023-05-10T18:58:48.450Z,70.52
2023-05-10T19:01:17.206Z,68.74
2023-05-10T19:03:45.635Z,70.04
2023-05-10T19:06:14.103Z,71.44
2023-05-10T19:08:42.086Z,73.00
2023-05-10T19:11:10.963Z,73.62
2023-05-10T19:13:40.847Z,75.28
2023-05-10T19:16:14.317Z,74.58
2023-05-10T19:18:45.453Z,72.07
2023-05-10T19:21:13.851Z,72.15
2023-05-10T19:23:43.053Z,70.50
2023-05-10T19:26:12.635Z,70.67
2023-05-10T19:28:42.341Z,72.19
2023-05-10T19:31:10.616Z,69.09
2023-05-10T19:33:38.802Z,68.20
2023-05-10T19:36:07.233Z,68.14
2023-05-10T19:38:35.498Z,65.65
2023-05-10T19:41:04.063Z,64.62
2023-05-10T19:43:34.640Z,63.74
2023-05-10T19:46:04.542Z,64.13
2023-05-10T19:48:33.164Z,64.26
2023-05-10T19:51:02.319Z,62.27
2023-05-10T19:53:30.460Z,63.20
2023-05-10T19:56:04.430Z,64.49
2023-05-10T19:58:33.255Z,65.77
2023-05-10T20:01:01.683Z,65.24
2023-05-10T20:03:31.282Z,63.74
2023-05-10T20:05:59.730Z,63.34
2023-05-10T20:08:27.927Z,62.33
2023-05-10T20:10:57.847Z,61.61
2023-05-10T20:13:25.933Z,61.62
2023-05-10T20:15:56.929Z,62.04
2023-05-10T20:18:25.614Z,65.92
2023-05-10T20:21:01.477Z,66.78
2023-05-10T20:23:29.481Z,64.83
2023-05-10T20:25:57.794Z,63.07
2023-05-10T20:28:27.213Z,60.78
2023-05-10T20:31:00.611Z,62.20
2023-05-10T20:33:28.819Z,60.65
2023-05-10T20:35:58.846Z,60.07
2023-05-10T20:38:26.808Z,59.02
2023-05-10T20:40:55.470Z,59.91
2023-05-10T20:43:23.537Z,60.46
2023-05-10T20:45:51.864Z,60.78
2023-05-10T20:48:20.090Z,61.43
2023-05-10T20:50:48.364Z,63.54
2023-05-10T20:53:18.514Z,63.59
2023-05-10T20:55:47.175Z,62.29
2023-05-10T20:58:15.200Z,61.83
2023-05-10T21:00:43.350Z,66.25
2023-05-10T21:03:11.631Z,63.83
2023-05-10T21:05:39.882Z,63.55
2023-05-10T21:08:07.904Z,63.65
2023-05-10T21:10:37.425Z,63.18
2023-05-10T21:13:05.539Z,64.23
2023-05-10T21:15:33.721Z,65.19
2023-05-10T21:18:01.713Z,63.83
2023-05-10T21:20:30.600Z,60.76
2023-05-10T21:22:58.644Z,60.68
2023-05-10T21:25:27.004Z,59.40
2023-05-10T21:27:56.332Z,59.34
2023-05-10T21:30:24.493Z,59.93
2023-05-10T21:32:54.020Z,59.52
2023-05-10T21:35:22.201Z,60.79
2023-05-10T21:37:50.118Z,62.01
2023-05-10T21:40:18.707Z,60.94
2023-05-10T21:42:49.562Z,60.64
2023-05-10T21:45:20.220Z,59.32
2023-05-10T21:47:49.369Z,60.02
2023-05-10T21:50:17.578Z,62.71
2023-05-10T21:52:46.004Z,62.64
2023-05-10T21:55:13.889Z,61.42
2023-05-10T21:57:42.301Z,61.46
2023-05-10T22:00:11.276Z,60.40
2023-05-10T22:02:41.910Z,59.78
2023-05-10T22:05:10.565Z,61.39
2023-05-10T22:07:38.797Z,60.75
2023-05-10T22:10:07.971Z,59.03
2023-05-10T22:12:36.086Z,59.62
2023-05-10T22:15:10.321Z,60.59
2023-05-10T22:17:40.000Z,62.28
2023-05-10T22:20:10.647Z,61.85
2023-05-10T22:22:38.601Z,62.79
2023-05-10T22:25:08.100Z,64.23
2023-05-10T22:27:36.788Z,63.62
2023-05-10T22:30:06.093Z,63.14
2023-05-10T22:32:34.373Z,61.64
2023-05-10T22:35:03.213Z,60.77
2023-05-10T22:37:32.668Z,59.78
2023-05-10T22:40:00.616Z,60.66
2023-05-10T22:42:29.000Z,60.68
2023-05-10T22:44:57.259Z,60.89
2023-05-10T22:47:25.292Z,60.38
2023-05-10T22:49:53.445Z,59.98
2023-05-10T22:52:21.551Z,62.49
2023-05-10T22:54:51.129Z,62.68
2023-05-10T22:57:19.441Z,64.00
2023-05-10T22:59:48.797Z,63.70
2023-05-10T23:02:18.022Z,63.85
2023-05-10T23:04:46.539Z,65.46
2023-05-10T23:07:14.594Z,64.91
2023-05-10T23:09:42.742Z,63.90
2023-05-10T23:12:12.162Z,64.32
2023-05-10T23:14:40.182Z,65.15
2023-05-10T23:17:08.261Z,64.95
2023-05-10T23:19:36.316Z,66.30
2023-05-10T23:22:04.396Z,65.18
2023-05-10T23:24:32.479Z,63.69
2023-05-10T23:27:00.443Z,63.83
2023-05-10T23:29:30.224Z,63.83
2023-05-10T23:31:58.402Z,65.39
2023-05-10T23:34:26.512Z,63.71
2023-05-10T23:36:54.488Z,63.48
2023-05-10T23:39:23.125Z,64.58
2023-05-10T23:41:51.777Z,63.65
2023-05-10T23:44:20.042Z,61.87
2023-05-10T23:46:49.614Z,61.19
2023-05-10T23:49:18.367Z,63.38
2023-05-10T23:51:46.508Z,63.22
2023-05-10T23:54:14.689Z,63.77
2023-05-10T23:56:43.090Z,64.24
2023-05-10T23:59:11.509Z,65.66
